sensor_id;sensor_type;location;lat;lon;timestamp;P1;durP1;ratioP1;P2;durP2;ratioP2
14736;SDS011;7459;53.590;10.062;2023-05-07T00:01:45;12.60;;;5.70;;
14736;SDS011;7459;53.590;10.062;2023-05-07T00:04:11;11.85;;;6.20;;
14736;SDS011;7459;53.590;10.062;2023-05-07T00:06:38;10.90;;;5.40;;
14736;SDS011;7459;53.590;10.062;2023-05-07T00:09:04;11.85;;;5.70;;
14736;SDS011;7459;53.590;10.062;2023-05-07T00:11:30;11.15;;;5.95;;
14736;SDS011;7459;53.590;10.062;2023-05-07T00:13:56;11.80;;;5.25;;
14736;SDS011;7459;53.590;10.062;2023-05-07T00:16:22;13.07;;;5.97;;
14736;SDS011;7459;53.590;10.062;2023-05-07T00:18:47;12.77;;;5.47;;
14736;SDS011;7459;53.590;10.062;2023-05-07T00:21:13;10.93;;;5.63;;
14736;SDS011;7459;53.590;10.062;2023-05-07T00:23:39;10.45;;;5.85;;
14736;SDS011;7459;53.590;10.062;2023-05-07T00:26:05;11.43;;;6.30;;
14736;SDS011;7459;53.590;10.062;2023-05-07T00:28:30;11.63;;;5.67;;
14736;SDS011;7459;53.590;10.062;2023-05-07T00:30:56;11.80;;;6.30;;
14736;SDS011;7459;53.590;10.062;2023-05-07T00:33:22;13.00;;;6.57;;
14736;SDS011;7459;53.590;10.062;2023-05-07T00:35:48;12.65;;;5.93;;
14736;SDS011;7459;53.590;10.062;2023-05-07T00:38:13;10.63;;;5.10;;
14736;SDS011;7459;53.590;10.062;2023-05-07T00:40:39;13.32;;;6.00;;
14736;SDS011;7459;53.590;10.062;2023-05-07T00:43:05;12.48;;;5.97;;
14736;SDS011;7459;53.590;10.062;2023-05-07T00:45:32;11.43;;;5.77;;
14736;SDS011;7459;53.590;10.062;2023-05-07T00:47:59;14.40;;;5.78;;
14736;SDS011;7459;53.590;10.062;2023-05-07T00:50:28;15.05;;;6.15;;
14736;SDS011;7459;53.590;10.062;2023-05-07T00:52:55;14.27;;;6.15;;
14736;SDS011;7459;53.590;10.062;2023-05-07T00:55:22;12.10;;;6.88;;
14736;SDS011;7459;53.590;10.062;2023-05-07T00:57:48;12.63;;;5.60;;
14736;SDS011;7459;53.590;10.062;2023-05-07T01:00:15;11.98;;;5.75;;
14736;SDS011;7459;53.590;10.062;2023-05-07T01:02:42;11.25;;;5.75;;
14736;SDS011;7459;53.590;10.062;2023-05-07T01:05:10;13.45;;;6.28;;
14736;SDS011;7459;53.590;10.062;2023-05-07T01:07:38;11.50;;;5.50;;
14736;SDS011;7459;53.590;10.062;2023-05-07T01:10:05;14.03;;;6.07;;
14736;SDS011;7459;53.590;10.062;2023-05-07T01:12:32;13.57;;;6.50;;
14736;SDS011;7459;53.590;10.062;2023-05-07T01:15:00;14.55;;;5.85;;
14736;SDS011;7459;53.590;10.062;2023-05-07T01:17:27;10.50;;;5.65;;
14736;SDS011;7459;53.590;10.062;2023-05-07T01:19:53;10.70;;;5.73;;
14736;SDS011;7459;53.590;10.062;2023-05-07T01:22:34;15.50;;;6.65;;
14736;SDS011;7459;53.590;10.062;2023-05-07T01:25:02;10.50;;;5.47;;
14736;SDS011;7459;53.590;10.062;2023-05-07T01:27:29;10.32;;;5.75;;
14736;SDS011;7459;53.590;10.062;2023-05-07T01:29:55;11.73;;;5.57;;
14736;SDS011;7459;53.590;10.062;2023-05-07T01:32:23;10.02;;;5.78;;
14736;SDS011;7459;53.590;10.062;2023-05-07T01:35:00;10.15;;;5.55;;
14736;SDS011;7459;53.590;10.062;2023-05-07T01:37:27;9.90;;;5.10;;
14736;SDS011;7459;53.590;10.062;2023-05-07T01:39:54;11.63;;;5.57;;
14736;SDS011;7459;53.590;10.062;2023-05-07T01:42:20;10.45;;;6.38;;
14736;SDS011;7459;53.590;10.062;2023-05-07T01:44:47;10.55;;;5.65;;
14736;SDS011;7459;53.590;10.062;2023-05-07T01:47:13;11.40;;;5.37;;
14736;SDS011;7459;53.590;10.062;2023-05-07T01:49:39;10.20;;;5.40;;
14736;SDS011;7459;53.590;10.062;2023-05-07T01:52:06;9.88;;;5.32;;
14736;SDS011;7459;53.590;10.062;2023-05-07T01:54:32;11.93;;;5.13;;
14736;SDS011;7459;53.590;10.062;2023-05-07T01:56:59;9.95;;;5.43;;
14736;SDS011;7459;53.590;10.062;2023-05-07T01:59:25;11.88;;;6.07;;
14736;SDS011;7459;53.590;10.062;2023-05-07T02:04:26;15.27;;;5.57;;
14736;SDS011;7459;53.590;10.062;2023-05-07T02:06:52;10.57;;;5.57;;
14736;SDS011;7459;53.590;10.062;2023-05-07T02:09:17;9.95;;;5.13;;
14736;SDS011;7459;53.590;10.062;2023-05-07T02:11:43;11.15;;;5.80;;
14736;SDS011;7459;53.590;10.062;2023-05-07T02:14:09;9.47;;;5.23;;
14736;SDS011;7459;53.590;10.062;2023-05-07T02:16:35;9.57;;;5.05;;
14736;SDS011;7459;53.590;10.062;2023-05-07T02:19:01;10.03;;;4.87;;
14736;SDS011;7459;53.590;10.062;2023-05-07T02:21:27;9.48;;;4.82;;
14736;SDS011;7459;53.590;10.062;2023-05-07T02:23:53;11.38;;;5.50;;
14736;SDS011;7459;53.590;10.062;2023-05-07T02:26:18;11.70;;;4.80;;
14736;SDS011;7459;53.590;10.062;2023-05-07T02:28:44;13.20;;;5.25;;
14736;SDS011;7459;53.590;10.062;2023-05-07T02:31:10;8.50;;;4.07;;
14736;SDS011;7459;53.590;10.062;2023-05-07T02:33:35;9.48;;;4.95;;
14736;SDS011;7459;53.590;10.062;2023-05-07T02:36:08;10.53;;;4.40;;
14736;SDS011;7459;53.590;10.062;2023-05-07T02:38:34;8.33;;;4.30;;
14736;SDS011;7459;53.590;10.062;2023-05-07T02:41:00;9.57;;;4.55;;
14736;SDS011;7459;53.590;10.062;2023-05-07T02:43:26;9.40;;;4.90;;
14736;SDS011;7459;53.590;10.062;2023-05-07T02:48:31;9.75;;;4.95;;
14736;SDS011;7459;53.590;10.062;2023-05-07T02:50:58;11.15;;;4.60;;
14736;SDS011;7459;53.590;10.062;2023-05-07T02:53:24;9.93;;;5.35;;
14736;SDS011;7459;53.590;10.062;2023-05-07T02:55:52;10.75;;;5.53;;
14736;SDS011;7459;53.590;10.062;2023-05-07T02:58:21;10.73;;;5.30;;
14736;SDS011;7459;53.590;10.062;2023-05-07T03:00:47;10.40;;;5.60;;
14736;SDS011;7459;53.590;10.062;2023-05-07T03:03:13;10.67;;;5.40;;
14736;SDS011;7459;53.590;10.062;2023-05-07T03:05:39;10.23;;;5.35;;
14736;SDS011;7459;53.590;10.062;2023-05-07T03:08:05;10.18;;;5.00;;
14736;SDS011;7459;53.590;10.062;2023-05-07T03:10:33;9.50;;;4.80;;
14736;SDS011;7459;53.590;10.062;2023-05-07T03:12:59;10.50;;;5.50;;
14736;SDS011;7459;53.590;10.062;2023-05-07T03:15:24;10.85;;;5.40;;
14736;SDS011;7459;53.590;10.062;2023-05-07T03:17:50;11.73;;;5.90;;
14736;SDS011;7459;53.590;10.062;2023-05-07T03:20:16;13.00;;;5.60;;
14736;SDS011;7459;53.590;10.062;2023-05-07T03:22:42;10.20;;;5.70;;
14736;SDS011;7459;53.590;10.062;2023-05-07T03:25:08;11.32;;;5.70;;
14736;SDS011;7459;53.590;10.062;2023-05-07T03:27:35;12.02;;;5.53;;
14736;SDS011;7459;53.590;10.062;2023-05-07T03:30:01;12.55;;;5.72;;
14736;SDS011;7459;53.590;10.062;2023-05-07T03:32:27;10.87;;;5.97;;
14736;SDS011;7459;53.590;10.062;2023-05-07T03:34:53;10.63;;;5.95;;
14736;SDS011;7459;53.590;10.062;2023-05-07T03:37:19;12.33;;;5.87;;
14736;SDS011;7459;53.590;10.062;2023-05-07T03:39:44;11.15;;;5.90;;
14736;SDS011;7459;53.590;10.062;2023-05-07T03:42:10;9.97;;;4.63;;
14736;SDS011;7459;53.590;10.062;2023-05-07T03:44:36;11.60;;;5.25;;
14736;SDS011;7459;53.590;10.062;2023-05-07T03:47:02;10.02;;;5.55;;
14736;SDS011;7459;53.590;10.062;2023-05-07T03:49:28;12.07;;;5.47;;
14736;SDS011;7459;53.590;10.062;2023-05-07T03:51:54;10.48;;;5.47;;
14736;SDS011;7459;53.590;10.062;2023-05-07T03:54:20;11.50;;;5.53;;
14736;SDS011;7459;53.590;10.062;2023-05-07T03:56:46;9.67;;;4.73;;
14736;SDS011;7459;53.590;10.062;2023-05-07T03:59:12;10.88;;;5.82;;
14736;SDS011;7459;53.590;10.062;2023-05-07T04:01:38;11.13;;;5.43;;
14736;SDS011;7459;53.590;10.062;2023-05-07T04:04:04;9.20;;;5.40;;
14736;SDS011;7459;53.590;10.062;2023-05-07T04:06:30;11.07;;;6.03;;
14736;SDS011;7459;53.590;10.062;2023-05-07T04:08:56;10.97;;;5.70;;
14736;SDS011;7459;53.590;10.062;2023-05-07T04:11:21;10.82;;;5.72;;
14736;SDS011;7459;53.590;10.062;2023-05-07T04:13:47;10.45;;;5.35;;
14736;SDS011;7459;53.590;10.062;2023-05-07T04:16:13;11.43;;;5.37;;
14736;SDS011;7459;53.590;10.062;2023-05-07T04:18:38;11.37;;;6.20;;
14736;SDS011;7459;53.590;10.062;2023-05-07T04:21:04;10.03;;;5.60;;
14736;SDS011;7459;53.590;10.062;2023-05-07T04:23:30;12.52;;;5.72;;
14736;SDS011;7459;53.590;10.062;2023-05-07T04:25:56;9.60;;;4.93;;
14736;SDS011;7459;53.590;10.062;2023-05-07T04:28:22;10.55;;;5.03;;
14736;SDS011;7459;53.590;10.062;2023-05-07T04:30:48;12.45;;;5.28;;
14736;SDS011;7459;53.590;10.062;2023-05-07T04:33:14;11.13;;;5.40;;
14736;SDS011;7459;53.590;10.062;2023-05-07T04:35:43;10.23;;;4.70;;
14736;SDS011;7459;53.590;10.062;2023-05-07T04:38:08;10.20;;;5.00;;
14736;SDS011;7459;53.590;10.062;2023-05-07T04:40:35;8.90;;;4.77;;
14736;SDS011;7459;53.590;10.062;2023-05-07T04:43:01;9.63;;;4.15;;
14736;SDS011;7459;53.590;10.062;2023-05-07T04:45:27;10.03;;;4.67;;
14736;SDS011;7459;53.590;10.062;2023-05-07T04:47:53;8.43;;;4.60;;
14736;SDS011;7459;53.590;10.062;2023-05-07T04:50:18;8.07;;;4.37;;
14736;SDS011;7459;53.590;10.062;2023-05-07T04:52:44;8.65;;;4.43;;
14736;SDS011;7459;53.590;10.062;2023-05-07T04:55:10;10.45;;;5.13;;
14736;SDS011;7459;53.590;10.062;2023-05-07T04:57:36;11.87;;;5.30;;
14736;SDS011;7459;53.590;10.062;2023-05-07T05:00:04;10.20;;;5.38;;
14736;SDS011;7459;53.590;10.062;2023-05-07T05:02:33;10.13;;;5.45;;
14736;SDS011;7459;53.590;10.062;2023-05-07T05:04:59;9.68;;;5.05;;
14736;SDS011;7459;53.590;10.062;2023-05-07T05:07:27;11.15;;;5.18;;
14736;SDS011;7459;53.590;10.062;2023-05-07T05:09:53;9.83;;;4.80;;
14736;SDS011;7459;53.590;10.062;2023-05-07T05:12:19;10.27;;;5.53;;
14736;SDS011;7459;53.590;10.062;2023-05-07T05:14:45;10.40;;;4.90;;
14736;SDS011;7459;53.590;10.062;2023-05-07T05:17:11;11.00;;;5.00;;
14736;SDS011;7459;53.590;10.062;2023-05-07T05:19:36;14.02;;;5.18;;
14736;SDS011;7459;53.590;10.062;2023-05-07T05:22:02;10.83;;;5.13;;
14736;SDS011;7459;53.590;10.062;2023-05-07T05:24:28;12.70;;;5.38;;
14736;SDS011;7459;53.590;10.062;2023-05-07T05:26:55;11.10;;;5.10;;
14736;SDS011;7459;53.590;10.062;2023-05-07T05:29:21;10.50;;;4.90;;
14736;SDS011;7459;53.590;10.062;2023-05-07T05:31:47;10.43;;;4.63;;
14736;SDS011;7459;53.590;10.062;2023-05-07T05:34:13;9.55;;;4.80;;
14736;SDS011;7459;53.590;10.062;2023-05-07T05:36:39;10.33;;;4.57;;
14736;SDS011;7459;53.590;10.062;2023-05-07T05:39:04;10.40;;;4.45;;
14736;SDS011;7459;53.590;10.062;2023-05-07T05:41:30;9.32;;;4.65;;
14736;SDS011;7459;53.590;10.062;2023-05-07T05:43:56;9.40;;;4.83;;
14736;SDS011;7459;53.590;10.062;2023-05-07T05:46:22;10.23;;;5.07;;
14736;SDS011;7459;53.590;10.062;2023-05-07T05:48:47;10.40;;;5.03;;
14736;SDS011;7459;53.590;10.062;2023-05-07T05:51:13;11.10;;;6.17;;
14736;SDS011;7459;53.590;10.062;2023-05-07T05:53:39;10.32;;;5.32;;
14736;SDS011;7459;53.590;10.062;2023-05-07T05:56:05;9.77;;;4.37;;
14736;SDS011;7459;53.590;10.062;2023-05-07T05:58:31;11.63;;;5.47;;
14736;SDS011;7459;53.590;10.062;2023-05-07T06:00:56;9.85;;;4.68;;
14736;SDS011;7459;53.590;10.062;2023-05-07T06:03:23;10.63;;;4.82;;
14736;SDS011;7459;53.590;10.062;2023-05-07T06:05:48;11.03;;;4.77;;
14736;SDS011;7459;53.590;10.062;2023-05-07T06:08:14;9.10;;;4.70;;
14736;SDS011;7459;53.590;10.062;2023-05-07T06:10:40;9.55;;;5.10;;
14736;SDS011;7459;53.590;10.062;2023-05-07T06:13:06;10.10;;;4.88;;
14736;SDS011;7459;53.590;10.062;2023-05-07T06:15:32;8.63;;;4.40;;
14736;SDS011;7459;53.590;10.062;2023-05-07T06:17:58;9.70;;;4.93;;
14736;SDS011;7459;53.590;10.062;2023-05-07T06:20:23;9.83;;;5.07;;
14736;SDS011;7459;53.590;10.062;2023-05-07T06:22:49;9.47;;;5.10;;
14736;SDS011;7459;53.590;10.062;2023-05-07T06:25:15;10.40;;;5.43;;
14736;SDS011;7459;53.590;10.062;2023-05-07T06:27:40;9.93;;;4.63;;
14736;SDS011;7459;53.590;10.062;2023-05-07T06:30:06;9.32;;;5.13;;
14736;SDS011;7459;53.590;10.062;2023-05-07T06:32:33;12.17;;;4.97;;
14736;SDS011;7459;53.590;10.062;2023-05-07T06:34:58;10.85;;;4.90;;
14736;SDS011;7459;53.590;10.062;2023-05-07T06:37:25;11.77;;;5.18;;
14736;SDS011;7459;53.590;10.062;2023-05-07T06:39:50;8.53;;;4.53;;
14736;SDS011;7459;53.590;10.062;2023-05-07T06:42:16;9.13;;;4.50;;
14736;SDS011;7459;53.590;10.062;2023-05-07T06:44:42;9.37;;;4.87;;
14736;SDS011;7459;53.590;10.062;2023-05-07T06:47:07;8.85;;;4.05;;
14736;SDS011;7459;53.590;10.062;2023-05-07T06:49:33;8.90;;;4.10;;
14736;SDS011;7459;53.590;10.062;2023-05-07T06:51:59;10.07;;;4.63;;
14736;SDS011;7459;53.590;10.062;2023-05-07T06:54:24;8.83;;;4.07;;
14736;SDS011;7459;53.590;10.062;2023-05-07T06:56:50;8.65;;;4.47;;
14736;SDS011;7459;53.590;10.062;2023-05-07T06:59:16;9.27;;;4.25;;
14736;SDS011;7459;53.590;10.062;2023-05-07T07:01:41;9.15;;;4.18;;
14736;SDS011;7459;53.590;10.062;2023-05-07T07:04:07;8.40;;;4.23;;
14736;SDS011;7459;53.590;10.062;2023-05-07T07:06:33;8.48;;;4.07;;
14736;SDS011;7459;53.590;10.062;2023-05-07T07:08:59;9.23;;;4.30;;
14736;SDS011;7459;53.590;10.062;2023-05-07T07:11:25;9.25;;;4.45;;
14736;SDS011;7459;53.590;10.062;2023-05-07T07:13:51;8.27;;;4.70;;
14736;SDS011;7459;53.590;10.062;2023-05-07T07:16:18;7.32;;;4.10;;
14736;SDS011;7459;53.590;10.062;2023-05-07T07:18:44;9.00;;;4.10;;
14736;SDS011;7459;53.590;10.062;2023-05-07T07:21:10;9.67;;;4.43;;
14736;SDS011;7459;53.590;10.062;2023-05-07T07:23:36;10.57;;;4.45;;
14736;SDS011;7459;53.590;10.062;2023-05-07T07:26:01;8.23;;;4.10;;
14736;SDS011;7459;53.590;10.062;2023-05-07T07:28:27;8.30;;;4.05;;
14736;SDS011;7459;53.590;10.062;2023-05-07T07:30:52;8.43;;;4.07;;
14736;SDS011;7459;53.590;10.062;2023-05-07T07:33:18;7.30;;;3.53;;
14736;SDS011;7459;53.590;10.062;2023-05-07T07:35:44;7.53;;;3.90;;
14736;SDS011;7459;53.590;10.062;2023-05-07T07:38:09;8.27;;;4.00;;
14736;SDS011;7459;53.590;10.062;2023-05-07T07:40:35;7.57;;;3.95;;
14736;SDS011;7459;53.590;10.062;2023-05-07T07:43:01;7.00;;;3.87;;
14736;SDS011;7459;53.590;10.062;2023-05-07T07:45:27;8.37;;;4.30;;
14736;SDS011;7459;53.590;10.062;2023-05-07T07:47:52;9.32;;;4.22;;
14736;SDS011;7459;53.590;10.062;2023-05-07T07:50:18;8.07;;;4.00;;
14736;SDS011;7459;53.590;10.062;2023-05-07T07:52:45;7.57;;;4.05;;
14736;SDS011;7459;53.590;10.062;2023-05-07T07:55:10;6.93;;;3.20;;
14736;SDS011;7459;53.590;10.062;2023-05-07T07:57:37;7.55;;;3.85;;
14736;SDS011;7459;53.590;10.062;2023-05-07T08:00:03;7.10;;;3.60;;
14736;SDS011;7459;53.590;10.062;2023-05-07T08:02:31;7.25;;;3.40;;
14736;SDS011;7459;53.590;10.062;2023-05-07T08:04:56;9.07;;;3.80;;
14736;SDS011;7459;53.590;10.062;2023-05-07T08:07:22;8.00;;;3.90;;
14736;SDS011;7459;53.590;10.062;2023-05-07T08:09:48;7.15;;;4.05;;
14736;SDS011;7459;53.590;10.062;2023-05-07T08:12:14;8.68;;;4.43;;
14736;SDS011;7459;53.590;10.062;2023-05-07T08:14:40;9.83;;;4.33;;
14736;SDS011;7459;53.590;10.062;2023-05-07T08:17:06;9.60;;;4.50;;
14736;SDS011;7459;53.590;10.062;2023-05-07T08:19:32;8.00;;;3.80;;
14736;SDS011;7459;53.590;10.062;2023-05-07T08:21:57;7.18;;;3.92;;
14736;SDS011;7459;53.590;10.062;2023-05-07T08:24:23;10.87;;;5.67;;
14736;SDS011;7459;53.590;10.062;2023-05-07T08:26:49;8.13;;;4.50;;
14736;SDS011;7459;53.590;10.062;2023-05-07T08:29:15;9.55;;;4.43;;
14736;SDS011;7459;53.590;10.062;2023-05-07T08:31:40;8.00;;;4.60;;
14736;SDS011;7459;53.590;10.062;2023-05-07T08:34:06;12.90;;;6.07;;
14736;SDS011;7459;53.590;10.062;2023-05-07T08:36:32;10.65;;;5.85;;
14736;SDS011;7459;53.590;10.062;2023-05-07T08:38:58;9.20;;;4.73;;
14736;SDS011;7459;53.590;10.062;2023-05-07T08:41:24;10.70;;;5.55;;
14736;SDS011;7459;53.590;10.062;2023-05-07T08:43:50;7.27;;;4.37;;
14736;SDS011;7459;53.590;10.062;2023-05-07T08:46:17;8.18;;;4.13;;
14736;SDS011;7459;53.590;10.062;2023-05-07T08:48:50;8.18;;;3.92;;
14736;SDS011;7459;53.590;10.062;2023-05-07T08:51:20;7.70;;;4.38;;
14736;SDS011;7459;53.590;10.062;2023-05-07T08:53:47;9.05;;;4.00;;
14736;SDS011;7459;53.590;10.062;2023-05-07T08:56:14;10.17;;;4.57;;
14736;SDS011;7459;53.590;10.062;2023-05-07T08:58:42;9.20;;;4.15;;
14736;SDS011;7459;53.590;10.062;2023-05-07T09:01:09;7.45;;;4.28;;
14736;SDS011;7459;53.590;10.062;2023-05-07T09:03:38;7.30;;;3.58;;
14736;SDS011;7459;53.590;10.062;2023-05-07T09:06:04;5.53;;;3.13;;
14736;SDS011;7459;53.590;10.062;2023-05-07T09:08:32;7.50;;;3.83;;
14736;SDS011;7459;53.590;10.062;2023-05-07T09:10:58;7.53;;;3.70;;
14736;SDS011;7459;53.590;10.062;2023-05-07T09:13:24;8.95;;;3.65;;
14736;SDS011;7459;53.590;10.062;2023-05-07T09:15:52;9.70;;;3.75;;
14736;SDS011;7459;53.590;10.062;2023-05-07T09:18:18;9.30;;;4.40;;
14736;SDS011;7459;53.590;10.062;2023-05-07T09:20:43;9.00;;;3.45;;
14736;SDS011;7459;53.590;10.062;2023-05-07T09:23:09;6.20;;;3.77;;
14736;SDS011;7459;53.590;10.062;2023-05-07T09:25:35;9.07;;;4.67;;
14736;SDS011;7459;53.590;10.062;2023-05-07T09:28:02;7.93;;;3.63;;
14736;SDS011;7459;53.590;10.062;2023-05-07T09:30:29;6.38;;;3.47;;
14736;SDS011;7459;53.590;10.062;2023-05-07T09:32:57;8.63;;;3.38;;
14736;SDS011;7459;53.590;10.062;2023-05-07T09:35:25;7.07;;;3.53;;
14736;SDS011;7459;53.590;10.062;2023-05-07T09:37:52;6.88;;;3.88;;
14736;SDS011;7459;53.590;10.062;2023-05-07T09:40:23;7.60;;;3.42;;
14736;SDS011;7459;53.590;10.062;2023-05-07T09:42:52;7.22;;;3.13;;
14736;SDS011;7459;53.590;10.062;2023-05-07T09:45:21;7.50;;;3.40;;
14736;SDS011;7459;53.590;10.062;2023-05-07T09:47:48;6.57;;;3.47;;
14736;SDS011;7459;53.590;10.062;2023-05-07T09:50:19;7.72;;;3.75;;
14736;SDS011;7459;53.590;10.062;2023-05-07T09:52:47;6.68;;;3.35;;
14736;SDS011;7459;53.590;10.062;2023-05-07T09:55:13;6.15;;;3.38;;
14736;SDS011;7459;53.590;10.062;2023-05-07T09:57:40;7.43;;;3.80;;
14736;SDS011;7459;53.590;10.062;2023-05-07T10:00:07;7.00;;;3.67;;
14736;SDS011;7459;53.590;10.062;2023-05-07T10:02:34;7.40;;;3.70;;
14736;SDS011;7459;53.590;10.062;2023-05-07T10:05:01;6.43;;;3.42;;
14736;SDS011;7459;53.590;10.062;2023-05-07T10:07:28;6.80;;;3.38;;
14736;SDS011;7459;53.590;10.062;2023-05-07T10:09:55;6.90;;;3.20;;
14736;SDS011;7459;53.590;10.062;2023-05-07T10:12:21;7.33;;;3.77;;
14736;SDS011;7459;53.590;10.062;2023-05-07T10:14:48;6.15;;;3.65;;
14736;SDS011;7459;53.590;10.062;2023-05-07T10:17:16;7.38;;;3.83;;
14736;SDS011;7459;53.590;10.062;2023-05-07T10:19:44;6.65;;;3.72;;
14736;SDS011;7459;53.590;10.062;2023-05-07T10:22:10;7.63;;;3.75;;
14736;SDS011;7459;53.590;10.062;2023-05-07T10:24:38;7.77;;;3.80;;
14736;SDS011;7459;53.590;10.062;2023-05-07T10:27:05;7.63;;;3.92;;
14736;SDS011;7459;53.590;10.062;2023-05-07T10:29:42;7.50;;;3.90;;
14736;SDS011;7459;53.590;10.062;2023-05-07T10:32:43;11.20;;;4.10;;
14736;SDS011;7459;53.590;10.062;2023-05-07T10:35:21;7.25;;;3.85;;
14736;SDS011;7459;53.590;10.062;2023-05-07T10:37:51;6.93;;;3.70;;
14736;SDS011;7459;53.590;10.062;2023-05-07T10:40:17;8.27;;;3.97;;
14736;SDS011;7459;53.590;10.062;2023-05-07T10:42:58;7.90;;;4.30;;
14736;SDS011;7459;53.590;10.062;2023-05-07T10:45:27;8.73;;;4.50;;
14736;SDS011;7459;53.590;10.062;2023-05-07T10:50:42;6.95;;;3.85;;
14736;SDS011;7459;53.590;10.062;2023-05-07T10:55:50;6.18;;;3.67;;
14736;SDS011;7459;53.590;10.062;2023-05-07T10:58:34;7.40;;;3.97;;
14736;SDS011;7459;53.590;10.062;2023-05-07T11:01:02;6.60;;;3.88;;
14736;SDS011;7459;53.590;10.062;2023-05-07T11:03:28;7.75;;;3.25;;
14736;SDS011;7459;53.590;10.062;2023-05-07T11:06:15;6.18;;;3.22;;
14736;SDS011;7459;53.590;10.062;2023-05-07T11:08:56;6.05;;;3.20;;
14736;SDS011;7459;53.590;10.062;2023-05-07T11:14:42;6.43;;;2.53;;
14736;SDS011;7459;53.590;10.062;2023-05-07T11:17:11;6.03;;;2.97;;
14736;SDS011;7459;53.590;10.062;2023-05-07T11:19:55;6.43;;;2.90;;
14736;SDS011;7459;53.590;10.062;2023-05-07T11:22:39;6.60;;;2.60;;
14736;SDS011;7459;53.590;10.062;2023-05-07T11:25:06;5.70;;;2.83;;
14736;SDS011;7459;53.590;10.062;2023-05-07T11:27:32;5.10;;;2.30;;
14736;SDS011;7459;53.590;10.062;2023-05-07T11:29:58;5.60;;;2.70;;
14736;SDS011;7459;53.590;10.062;2023-05-07T11:32:26;5.72;;;2.60;;
14736;SDS011;7459;53.590;10.062;2023-05-07T11:34:54;7.88;;;2.50;;
14736;SDS011;7459;53.590;10.062;2023-05-07T11:37:22;5.87;;;2.50;;
14736;SDS011;7459;53.590;10.062;2023-05-07T11:39:50;7.15;;;2.65;;
14736;SDS011;7459;53.590;10.062;2023-05-07T11:42:29;7.78;;;2.92;;
14736;SDS011;7459;53.590;10.062;2023-05-07T11:44:57;5.20;;;2.33;;
14736;SDS011;7459;53.590;10.062;2023-05-07T11:47:23;5.95;;;2.60;;
14736;SDS011;7459;53.590;10.062;2023-05-07T11:49:53;4.60;;;2.47;;
14736;SDS011;7459;53.590;10.062;2023-05-07T11:52:20;5.75;;;2.40;;
14736;SDS011;7459;53.590;10.062;2023-05-07T11:54:55;6.03;;;2.72;;
14736;SDS011;7459;53.590;10.062;2023-05-07T11:57:23;5.32;;;2.33;;
14736;SDS011;7459;53.590;10.062;2023-05-07T11:59:53;5.63;;;2.63;;
14736;SDS011;7459;53.590;10.062;2023-05-07T12:02:23;4.73;;;2.13;;
14736;SDS011;7459;53.590;10.062;2023-05-07T12:04:52;5.00;;;2.15;;
14736;SDS011;7459;53.590;10.062;2023-05-07T12:07:18;4.50;;;2.20;;
14736;SDS011;7459;53.590;10.062;2023-05-07T12:09:45;4.55;;;2.22;;
14736;SDS011;7459;53.590;10.062;2023-05-07T12:12:11;3.67;;;1.93;;
14736;SDS011;7459;53.590;10.062;2023-05-07T12:14:38;5.90;;;2.38;;
14736;SDS011;7459;53.590;10.062;2023-05-07T12:17:06;6.78;;;2.55;;
14736;SDS011;7459;53.590;10.062;2023-05-07T12:19:33;5.15;;;1.80;;
14736;SDS011;7459;53.590;10.062;2023-05-07T12:21:59;4.63;;;2.28;;
14736;SDS011;7459;53.590;10.062;2023-05-07T12:24:27;4.60;;;1.70;;
14736;SDS011;7459;53.590;10.062;2023-05-07T12:26:53;4.85;;;1.63;;
14736;SDS011;7459;53.590;10.062;2023-05-07T12:29:22;3.92;;;1.80;;
14736;SDS011;7459;53.590;10.062;2023-05-07T12:31:48;3.80;;;1.60;;
14736;SDS011;7459;53.590;10.062;2023-05-07T12:34:15;4.40;;;1.80;;
14736;SDS011;7459;53.590;10.062;2023-05-07T12:36:41;3.47;;;1.77;;
14736;SDS011;7459;53.590;10.062;2023-05-07T12:39:07;4.05;;;2.10;;
14736;SDS011;7459;53.590;10.062;2023-05-07T12:41:51;4.27;;;1.67;;
14736;SDS011;7459;53.590;10.062;2023-05-07T12:44:21;4.65;;;1.70;;
14736;SDS011;7459;53.590;10.062;2023-05-07T12:46:48;5.25;;;1.70;;
14736;SDS011;7459;53.590;10.062;2023-05-07T12:49:14;3.28;;;1.25;;
14736;SDS011;7459;53.590;10.062;2023-05-07T12:51:40;3.33;;;1.47;;
14736;SDS011;7459;53.590;10.062;2023-05-07T12:54:06;3.63;;;1.73;;
14736;SDS011;7459;53.590;10.062;2023-05-07T12:56:35;4.70;;;1.33;;
14736;SDS011;7459;53.590;10.062;2023-05-07T12:59:01;3.75;;;1.40;;
14736;SDS011;7459;53.590;10.062;2023-05-07T13:01:30;3.47;;;1.58;;
14736;SDS011;7459;53.590;10.062;2023-05-07T13:04:02;5.22;;;1.40;;
14736;SDS011;7459;53.590;10.062;2023-05-07T13:06:29;5.70;;;1.80;;
14736;SDS011;7459;53.590;10.062;2023-05-07T13:08:56;4.97;;;1.80;;
14736;SDS011;7459;53.590;10.062;2023-05-07T13:11:21;5.65;;;2.20;;
14736;SDS011;7459;53.590;10.062;2023-05-07T13:13:48;5.78;;;1.60;;
14736;SDS011;7459;53.590;10.062;2023-05-07T13:16:13;3.70;;;1.50;;
14736;SDS011;7459;53.590;10.062;2023-05-07T13:18:39;3.63;;;1.50;;
14736;SDS011;7459;53.590;10.062;2023-05-07T13:21:05;3.20;;;1.33;;
14736;SDS011;7459;53.590;10.062;2023-05-07T13:23:31;3.50;;;1.40;;
14736;SDS011;7459;53.590;10.062;2023-05-07T13:25:57;2.93;;;1.30;;
14736;SDS011;7459;53.590;10.062;2023-05-07T13:28:23;3.63;;;1.70;;
14736;SDS011;7459;53.590;10.062;2023-05-07T13:30:49;4.70;;;1.40;;
14736;SDS011;7459;53.590;10.062;2023-05-07T13:33:16;7.97;;;1.50;;
14736;SDS011;7459;53.590;10.062;2023-05-07T13:35:43;2.93;;;1.10;;
14736;SDS011;7459;53.590;10.062;2023-05-07T13:38:09;4.43;;;1.17;;
14736;SDS011;7459;53.590;10.062;2023-05-07T13:40:35;3.70;;;1.10;;
14736;SDS011;7459;53.590;10.062;2023-05-07T13:43:01;4.37;;;1.13;;
14736;SDS011;7459;53.590;10.062;2023-05-07T13:45:29;4.75;;;2.00;;
14736;SDS011;7459;53.590;10.062;2023-05-07T13:47:55;3.10;;;1.42;;
14736;SDS011;7459;53.590;10.062;2023-05-07T13:50:21;4.05;;;1.38;;
14736;SDS011;7459;53.590;10.062;2023-05-07T13:52:49;3.17;;;1.20;;
14736;SDS011;7459;53.590;10.062;2023-05-07T13:55:17;3.13;;;1.13;;
14736;SDS011;7459;53.590;10.062;2023-05-07T13:57:47;3.63;;;1.58;;
14736;SDS011;7459;53.590;10.062;2023-05-07T14:00:21;3.33;;;1.17;;
14736;SDS011;7459;53.590;10.062;2023-05-07T14:02:48;3.15;;;1.55;;
14736;SDS011;7459;53.590;10.062;2023-05-07T14:05:13;3.07;;;1.20;;
14736;SDS011;7459;53.590;10.062;2023-05-07T14:07:39;3.05;;;1.23;;
14736;SDS011;7459;53.590;10.062;2023-05-07T14:10:05;3.43;;;1.27;;
14736;SDS011;7459;53.590;10.062;2023-05-07T14:12:32;3.53;;;1.65;;
14736;SDS011;7459;53.590;10.062;2023-05-07T14:14:58;2.92;;;1.40;;
14736;SDS011;7459;53.590;10.062;2023-05-07T14:17:24;4.40;;;1.00;;
14736;SDS011;7459;53.590;10.062;2023-05-07T14:19:52;2.80;;;1.10;;
14736;SDS011;7459;53.590;10.062;2023-05-07T14:22:19;2.83;;;1.00;;
14736;SDS011;7459;53.590;10.062;2023-05-07T14:24:48;3.10;;;1.50;;
14736;SDS011;7459;53.590;10.062;2023-05-07T14:27:15;4.18;;;2.03;;
14736;SDS011;7459;53.590;10.062;2023-05-07T14:29:41;3.55;;;1.20;;
14736;SDS011;7459;53.590;10.062;2023-05-07T14:32:08;3.53;;;1.40;;
14736;SDS011;7459;53.590;10.062;2023-05-07T14:34:33;3.10;;;1.20;;
14736;SDS011;7459;53.590;10.062;2023-05-07T14:36:59;4.43;;;1.70;;
14736;SDS011;7459;53.590;10.062;2023-05-07T14:39:26;3.57;;;1.40;;
14736;SDS011;7459;53.590;10.062;2023-05-07T14:41:52;3.40;;;1.25;;
14736;SDS011;7459;53.590;10.062;2023-05-07T14:44:19;5.20;;;1.40;;
14736;SDS011;7459;53.590;10.062;2023-05-07T14:46:45;3.37;;;1.40;;
14736;SDS011;7459;53.590;10.062;2023-05-07T14:49:11;4.10;;;1.40;;
14736;SDS011;7459;53.590;10.062;2023-05-07T14:51:42;3.28;;;1.45;;
14736;SDS011;7459;53.590;10.062;2023-05-07T14:54:09;3.27;;;1.50;;
14736;SDS011;7459;53.590;10.062;2023-05-07T14:56:35;3.08;;;1.20;;